SIA23 KJFK-WSSS
Flight info
| Callsign | SIA23 |
|---|---|
| Flight time | N/A |
| Altitude | 33000 |
| Route | HAPIE DCT YAHOO DCT WHALE N59E NANSO/M085F330 N59E RAFIN DCT 45N050W 47N040W 49N030W 51N020W DCT DINIM DCT ELSOX DCT LESLU/N0488F330 DCT OXLOW/N0487F370 DCT KONAN DCT KOK DCT REMBA DCT MATUG DCT BOMBI DCT TENLO DCT DEXIT DCT PESAT DCT TEGRI DCT UDROS/N0489F390 DCT CRM UM11 TBN UR317 REBLO M11 LUSAL N199 BAKUV N701 LARGI B701 KRS A240 INRAK B449 DOLOS B475 RUBAD A846 RANAH L750 VELDT/N0488F410 L750 ZB G201 BINDO L750 MERUN G452 LKN R460 BBN P646 POXEM M626 IKOGA Y24 PASVA Y514 NUFFA DCT PIBAP DCT PASPU DCT NYLON DCT POSUB DCT SANAT |
| Aircraft | A359/H-SDE2E3GHIJ3J4J5LM1ORWXY/LB1D1 |
Departure
| Time | N/A |
|---|---|
| Airport | John F. Kennedy International Airport (KJFK) |
Arrival
| Time | 2026-05-07 04:39 |
|---|---|
| Airport | Singapore Changi Airport (WSSS) |
| Time | Latitude | Longitude | Altitude | Speed | Heading |
|---|---|---|---|---|---|
| 2026-05-07 02:31 | 14.90293 | 97.78380 | 38932 ft | 431 kts | 153° |
| 2026-05-07 02:31 | 14.84925 | 97.81246 | 38919 ft | 434 kts | 153° |
| 2026-05-07 02:32 | 14.79537 | 97.84102 | 38927 ft | 437 kts | 153° |
| 2026-05-07 02:32 | 14.74197 | 97.86930 | 38915 ft | 434 kts | 153° |
| 2026-05-07 02:33 | 14.68752 | 97.89793 | 38915 ft | 436 kts | 153° |
| 2026-05-07 02:33 | 14.63376 | 97.92644 | 38919 ft | 434 kts | 153° |
| 2026-05-07 02:34 | 14.57994 | 97.95485 | 38926 ft | 437 kts | 153° |
| 2026-05-07 02:34 | 14.52588 | 97.98315 | 38934 ft | 437 kts | 153° |
| 2026-05-07 02:35 | 14.47203 | 98.01150 | 38930 ft | 433 kts | 153° |
| 2026-05-07 02:35 | 14.41853 | 98.03974 | 38922 ft | 433 kts | 153° |
| 2026-05-07 02:36 | 14.36489 | 98.06798 | 38915 ft | 432 kts | 153° |
| 2026-05-07 02:36 | 14.31157 | 98.09609 | 38912 ft | 433 kts | 153° |
| 2026-05-07 02:37 | 14.25778 | 98.12444 | 38916 ft | 435 kts | 153° |
| 2026-05-07 02:37 | 14.20376 | 98.15270 | 38905 ft | 438 kts | 153° |
| 2026-05-07 02:38 | 14.14982 | 98.18096 | 38906 ft | 433 kts | 153° |
| 2026-05-07 02:38 | 14.09608 | 98.20910 | 38906 ft | 433 kts | 153° |
| 2026-05-07 02:39 | 14.04229 | 98.23744 | 38904 ft | 434 kts | 153° |
| 2026-05-07 02:39 | 13.98830 | 98.26579 | 38905 ft | 435 kts | 153° |
| 2026-05-07 02:40 | 13.93499 | 98.29380 | 38906 ft | 435 kts | 153° |
| 2026-05-07 02:40 | 13.88127 | 98.32195 | 38906 ft | 433 kts | 153° |
| 2026-05-07 02:41 | 13.82723 | 98.35009 | 38898 ft | 434 kts | 153° |
| 2026-05-07 02:41 | 13.77336 | 98.37824 | 38897 ft | 433 kts | 153° |
| 2026-05-07 02:42 | 13.71969 | 98.40637 | 38895 ft | 433 kts | 153° |
| 2026-05-07 02:42 | 13.66610 | 98.43451 | 38895 ft | 434 kts | 153° |
| 2026-05-07 02:43 | 13.61229 | 98.46258 | 38900 ft | 436 kts | 153° |
| 2026-05-07 02:43 | 13.55846 | 98.49069 | 38898 ft | 434 kts | 153° |
| 2026-05-07 02:44 | 13.50456 | 98.51901 | 38896 ft | 431 kts | 153° |
| 2026-05-07 02:44 | 13.45123 | 98.54730 | 38896 ft | 431 kts | 153° |
| 2026-05-07 02:45 | 13.39787 | 98.57548 | 38896 ft | 432 kts | 153° |
| 2026-05-07 02:45 | 13.34468 | 98.60364 | 38894 ft | 433 kts | 153° |
| 2026-05-07 02:46 | 13.29111 | 98.63211 | 38896 ft | 430 kts | 153° |
| 2026-05-07 02:46 | 13.23803 | 98.66024 | 38898 ft | 429 kts | 153° |
| 2026-05-07 02:47 | 13.18481 | 98.68826 | 38896 ft | 429 kts | 153° |
| 2026-05-07 02:47 | 13.13164 | 98.71639 | 38898 ft | 431 kts | 153° |
| 2026-05-07 02:48 | 13.07813 | 98.74460 | 38898 ft | 434 kts | 153° |
| 2026-05-07 02:48 | 13.02493 | 98.77272 | 38902 ft | 433 kts | 153° |
| 2026-05-07 02:49 | 12.97137 | 98.80108 | 38895 ft | 432 kts | 153° |
| 2026-05-07 02:49 | 12.91783 | 98.82940 | 38897 ft | 433 kts | 153° |
| 2026-05-07 02:50 | 12.86427 | 98.85775 | 38900 ft | 431 kts | 153° |
| 2026-05-07 02:50 | 12.81082 | 98.88603 | 38880 ft | 433 kts | 153° |
| 2026-05-07 02:51 | 12.75727 | 98.91425 | 38888 ft | 432 kts | 153° |
| 2026-05-07 02:51 | 12.70395 | 98.94236 | 38889 ft | 433 kts | 153° |
| 2026-05-07 02:52 | 12.65063 | 98.97043 | 38889 ft | 431 kts | 153° |
| 2026-05-07 02:52 | 12.59710 | 98.99847 | 38888 ft | 432 kts | 153° |
| 2026-05-07 02:53 | 12.54364 | 99.02648 | 38888 ft | 432 kts | 153° |
| 2026-05-07 02:53 | 12.49028 | 99.05451 | 38893 ft | 428 kts | 153° |
| 2026-05-07 02:54 | 12.43725 | 99.08229 | 38890 ft | 427 kts | 153° |
| 2026-05-07 02:54 | 12.38417 | 99.11013 | 38885 ft | 432 kts | 153° |
| 2026-05-07 02:55 | 12.33073 | 99.13829 | 38887 ft | 432 kts | 153° |
| 2026-05-07 02:55 | 12.27749 | 99.16625 | 38892 ft | 431 kts | 153° |
| 2026-05-07 02:56 | 12.22422 | 99.19434 | 38888 ft | 432 kts | 153° |
| 2026-05-07 02:56 | 12.17080 | 99.22232 | 38887 ft | 431 kts | 153° |
| 2026-05-07 02:57 | 12.11732 | 99.25031 | 38889 ft | 432 kts | 153° |
| 2026-05-07 02:57 | 12.06357 | 99.27845 | 38881 ft | 432 kts | 153° |
| 2026-05-07 02:58 | 12.01050 | 99.30640 | 38889 ft | 427 kts | 153° |
| 2026-05-07 02:58 | 11.95749 | 99.33422 | 38891 ft | 433 kts | 153° |
| 2026-05-07 02:59 | 11.90370 | 99.36227 | 38884 ft | 431 kts | 153° |
| 2026-05-07 02:59 | 11.85019 | 99.39004 | 38885 ft | 432 kts | 153° |
| 2026-05-07 03:00 | 11.79711 | 99.41780 | 38890 ft | 430 kts | 153° |
| 2026-05-07 03:00 | 11.74397 | 99.44579 | 38887 ft | 429 kts | 153° |
| 2026-05-07 03:01 | 11.69042 | 99.47376 | 38883 ft | 432 kts | 153° |
| 2026-05-07 03:01 | 11.63691 | 99.50157 | 38891 ft | 433 kts | 153° |
| 2026-05-07 03:02 | 11.58352 | 99.52954 | 38891 ft | 430 kts | 153° |
| 2026-05-07 03:02 | 11.53010 | 99.55763 | 38888 ft | 429 kts | 153° |
| 2026-05-07 03:03 | 11.47703 | 99.58575 | 38888 ft | 428 kts | 153° |
| 2026-05-07 03:03 | 11.42371 | 99.61358 | 38885 ft | 432 kts | 153° |
| 2026-05-07 03:04 | 11.37043 | 99.64155 | 38884 ft | 429 kts | 153° |
| 2026-05-07 03:04 | 11.31766 | 99.66933 | 38889 ft | 430 kts | 153° |
| 2026-05-07 03:05 | 11.26427 | 99.69742 | 38887 ft | 432 kts | 153° |
| 2026-05-07 03:05 | 11.21107 | 99.72526 | 38888 ft | 426 kts | 153° |
| 2026-05-07 03:06 | 11.15822 | 99.75312 | 38888 ft | 433 kts | 153° |
| 2026-05-07 03:06 | 11.10506 | 99.78094 | 38889 ft | 428 kts | 153° |
| 2026-05-07 03:07 | 11.05168 | 99.80823 | 38888 ft | 426 kts | 153° |
| 2026-05-07 03:07 | 10.99880 | 99.83506 | 38888 ft | 430 kts | 154° |
| 2026-05-07 03:08 | 10.94488 | 99.86234 | 38885 ft | 433 kts | 153° |
| 2026-05-07 03:08 | 10.89105 | 99.88989 | 38890 ft | 431 kts | 153° |
| 2026-05-07 03:09 | 10.83753 | 99.91732 | 38888 ft | 430 kts | 154° |
| 2026-05-07 03:09 | 10.78411 | 99.94451 | 38888 ft | 428 kts | 153° |
| 2026-05-07 03:10 | 10.73095 | 99.97152 | 38887 ft | 426 kts | 154° |
| 2026-05-07 03:10 | 10.67750 | 99.99857 | 38885 ft | 432 kts | 153° |
| 2026-05-07 03:11 | 10.62397 | 100.02607 | 38885 ft | 430 kts | 153° |
| 2026-05-07 03:11 | 10.57970 | 100.04863 | 38894 ft | 427 kts | 153° |
| 2026-05-07 03:12 | 10.52649 | 100.07576 | 38891 ft | 431 kts | 153° |
| 2026-05-07 03:12 | 10.47268 | 100.10312 | 38884 ft | 431 kts | 153° |
| 2026-05-07 03:13 | 10.41944 | 100.13022 | 38887 ft | 430 kts | 153° |
| 2026-05-07 03:13 | 10.36621 | 100.15732 | 38885 ft | 428 kts | 153° |
| 2026-05-07 03:14 | 10.31262 | 100.18469 | 38887 ft | 430 kts | 153° |
| 2026-05-07 03:15 | 10.23259 | 100.22530 | 38889 ft | 424 kts | 153° |
| 2026-05-07 03:15 | 10.17934 | 100.25212 | 38891 ft | 429 kts | 154° |
| 2026-05-07 03:16 | 10.12577 | 100.27918 | 38883 ft | 431 kts | 153° |
| 2026-05-07 03:16 | 10.07258 | 100.30629 | 38889 ft | 428 kts | 153° |
| 2026-05-07 03:17 | 10.01936 | 100.33320 | 38888 ft | 428 kts | 153° |
| 2026-05-07 03:17 | 9.96614 | 100.36035 | 38891 ft | 423 kts | 153° |
| 2026-05-07 03:18 | 9.91365 | 100.38723 | 38888 ft | 429 kts | 153° |
| 2026-05-07 03:18 | 9.86006 | 100.41448 | 38885 ft | 432 kts | 154° |
| 2026-05-07 03:19 | 9.80622 | 100.44152 | 38887 ft | 432 kts | 153° |
| 2026-05-07 03:19 | 9.75257 | 100.46874 | 38891 ft | 427 kts | 154° |
| 2026-05-07 03:20 | 9.69954 | 100.49544 | 38886 ft | 425 kts | 154° |
| 2026-05-07 03:20 | 9.64670 | 100.52246 | 38887 ft | 429 kts | 153° |
| 2026-05-07 03:21 | 9.59371 | 100.54986 | 38885 ft | 427 kts | 153° |
| 2026-05-07 03:21 | 9.54037 | 100.57731 | 38888 ft | 431 kts | 153° |
| 2026-05-07 03:22 | 9.48705 | 100.60471 | 38890 ft | 431 kts | 153° |
| 2026-05-07 03:22 | 9.43336 | 100.63240 | 38886 ft | 437 kts | 153° |
| 2026-05-07 03:23 | 9.37949 | 100.66007 | 38886 ft | 433 kts | 153° |
| 2026-05-07 03:23 | 9.32588 | 100.68761 | 38889 ft | 429 kts | 153° |
| 2026-05-07 03:24 | 9.27271 | 100.71501 | 38888 ft | 430 kts | 153° |
| 2026-05-07 03:24 | 9.21929 | 100.74243 | 38887 ft | 430 kts | 153° |
| 2026-05-07 03:25 | 9.16619 | 100.76976 | 38890 ft | 426 kts | 153° |
| 2026-05-07 03:25 | 9.11305 | 100.79705 | 38889 ft | 431 kts | 153° |
| 2026-05-07 03:26 | 9.05963 | 100.82450 | 38889 ft | 430 kts | 153° |
| 2026-05-07 03:26 | 9.00635 | 100.85177 | 38892 ft | 433 kts | 153° |
| 2026-05-07 03:27 | 8.95268 | 100.87922 | 38884 ft | 432 kts | 153° |
| 2026-05-07 03:27 | 8.89955 | 100.90646 | 38889 ft | 425 kts | 153° |
| 2026-05-07 03:28 | 8.84660 | 100.93367 | 38884 ft | 431 kts | 153° |
| 2026-05-07 03:28 | 8.79299 | 100.96109 | 38889 ft | 429 kts | 153° |
| 2026-05-07 03:29 | 8.73961 | 100.98839 | 38890 ft | 431 kts | 153° |
| 2026-05-07 03:29 | 8.68598 | 101.01583 | 38887 ft | 431 kts | 153° |
| 2026-05-07 03:30 | 8.63250 | 101.04322 | 38887 ft | 430 kts | 153° |
| 2026-05-07 03:30 | 8.57914 | 101.07067 | 38885 ft | 429 kts | 153° |
| 2026-05-07 03:31 | 8.52581 | 101.09802 | 38891 ft | 431 kts | 153° |
| 2026-05-07 03:31 | 8.47260 | 101.12535 | 38879 ft | 428 kts | 153° |
| 2026-05-07 03:32 | 8.41945 | 101.15282 | 38882 ft | 433 kts | 153° |
| 2026-05-07 03:32 | 8.36614 | 101.18008 | 38880 ft | 430 kts | 153° |
| 2026-05-07 03:33 | 8.31255 | 101.20761 | 38877 ft | 433 kts | 153° |
| 2026-05-07 03:33 | 8.25897 | 101.23529 | 38880 ft | 433 kts | 153° |
| 2026-05-07 03:34 | 8.20564 | 101.26278 | 38880 ft | 428 kts | 153° |
| 2026-05-07 03:34 | 8.15253 | 101.29016 | 38878 ft | 428 kts | 153° |
| 2026-05-07 03:35 | 8.09956 | 101.31736 | 38878 ft | 428 kts | 153° |
| 2026-05-07 03:35 | 8.04642 | 101.34451 | 38875 ft | 429 kts | 153° |
| 2026-05-07 03:36 | 7.99275 | 101.37207 | 38871 ft | 431 kts | 153° |
| 2026-05-07 03:36 | 7.93963 | 101.39951 | 38883 ft | 431 kts | 153° |
| 2026-05-07 03:37 | 7.88616 | 101.42705 | 38876 ft | 432 kts | 153° |
| 2026-05-07 03:37 | 7.83303 | 101.45426 | 38882 ft | 428 kts | 153° |
| 2026-05-07 03:38 | 7.77991 | 101.48141 | 38880 ft | 425 kts | 153° |
| 2026-05-07 03:38 | 7.72702 | 101.50848 | 38877 ft | 428 kts | 153° |
| 2026-05-07 03:39 | 7.67397 | 101.53568 | 38877 ft | 429 kts | 153° |
| 2026-05-07 03:39 | 7.61849 | 101.55881 | 38876 ft | 433 kts | 159° |
| 2026-05-07 03:40 | 7.56233 | 101.58031 | 38880 ft | 431 kts | 159° |
| 2026-05-07 03:40 | 7.50557 | 101.60185 | 38869 ft | 446 kts | 159° |
| 2026-05-07 03:41 | 7.44643 | 101.62423 | 38871 ft | 462 kts | 159° |
| 2026-05-07 03:41 | 7.38528 | 101.64761 | 38872 ft | 477 kts | 159° |
| 2026-05-07 03:42 | 7.32244 | 101.67138 | 38874 ft | 490 kts | 159° |
| 2026-05-07 03:42 | 7.25809 | 101.69588 | 38878 ft | 502 kts | 159° |
| 2026-05-07 03:43 | 7.19251 | 101.72083 | 38877 ft | 502 kts | 159° |
| 2026-05-07 03:43 | 7.12708 | 101.74571 | 38880 ft | 503 kts | 159° |
| 2026-05-07 03:44 | 7.06147 | 101.77068 | 38878 ft | 502 kts | 159° |
| 2026-05-07 03:44 | 6.99591 | 101.79555 | 38878 ft | 504 kts | 159° |
| 2026-05-07 03:45 | 6.93071 | 101.82031 | 38881 ft | 503 kts | 159° |
| 2026-05-07 03:45 | 6.86522 | 101.84528 | 38876 ft | 503 kts | 159° |
| 2026-05-07 03:46 | 6.79986 | 101.87001 | 38878 ft | 503 kts | 159° |
| 2026-05-07 03:46 | 6.73498 | 101.89448 | 38876 ft | 501 kts | 159° |
| 2026-05-07 03:47 | 6.66963 | 101.91926 | 38876 ft | 503 kts | 159° |
| 2026-05-07 03:47 | 6.60424 | 101.94416 | 38884 ft | 504 kts | 158° |
| 2026-05-07 03:48 | 6.53855 | 101.96899 | 38877 ft | 503 kts | 159° |
| 2026-05-07 03:48 | 6.47291 | 101.99376 | 38876 ft | 501 kts | 159° |
| 2026-05-07 03:49 | 6.40796 | 102.01856 | 38881 ft | 501 kts | 158° |
| 2026-05-07 03:49 | 6.34282 | 102.04332 | 38874 ft | 499 kts | 159° |
| 2026-05-07 03:50 | 6.27733 | 102.06797 | 38863 ft | 503 kts | 159° |
| 2026-05-07 03:50 | 6.21201 | 102.09163 | 38862 ft | 502 kts | 161° |
| 2026-05-07 03:51 | 6.14516 | 102.11310 | 38863 ft | 503 kts | 162° |
| 2026-05-07 03:51 | 6.07841 | 102.13439 | 38860 ft | 504 kts | 161° |
| 2026-05-07 03:52 | 6.01157 | 102.15620 | 38856 ft | 502 kts | 161° |
| 2026-05-07 03:52 | 5.94503 | 102.17802 | 38861 ft | 504 kts | 161° |
| 2026-05-07 03:53 | 5.87811 | 102.20020 | 38852 ft | 505 kts | 161° |
| 2026-05-07 03:53 | 5.81156 | 102.22214 | 38873 ft | 503 kts | 161° |
| 2026-05-07 03:54 | 5.74478 | 102.24396 | 38862 ft | 504 kts | 161° |
| 2026-05-07 03:54 | 5.67899 | 102.26825 | 38855 ft | 503 kts | 157° |
| 2026-05-07 03:55 | 5.61451 | 102.29516 | 38861 ft | 502 kts | 156° |
| 2026-05-07 03:55 | 5.54975 | 102.32192 | 38861 ft | 504 kts | 157° |
| 2026-05-07 03:56 | 5.48469 | 102.34813 | 38861 ft | 502 kts | 157° |
| 2026-05-07 03:56 | 5.42023 | 102.37398 | 38859 ft | 504 kts | 158° |
| 2026-05-07 03:57 | 5.35489 | 102.39993 | 38857 ft | 505 kts | 158° |
| 2026-05-07 03:57 | 5.28956 | 102.42599 | 38862 ft | 508 kts | 158° |
| 2026-05-07 03:58 | 5.22403 | 102.45203 | 38863 ft | 504 kts | 158° |
| 2026-05-07 03:58 | 5.15893 | 102.47815 | 38857 ft | 502 kts | 157° |
| 2026-05-07 03:59 | 5.09395 | 102.50415 | 38861 ft | 503 kts | 158° |
| 2026-05-07 03:59 | 5.03982 | 102.52576 | 38860 ft | 503 kts | 158° |
| 2026-05-07 04:00 | 4.97488 | 102.55149 | 38858 ft | 501 kts | 158° |
| 2026-05-07 04:00 | 4.89968 | 102.58175 | 38857 ft | 502 kts | 157° |
| 2026-05-07 04:01 | 4.84541 | 102.60341 | 38859 ft | 501 kts | 158° |
| 2026-05-07 04:01 | 4.78053 | 102.62917 | 38858 ft | 503 kts | 158° |
| 2026-05-07 04:02 | 4.71551 | 102.65498 | 38858 ft | 504 kts | 157° |
| 2026-05-07 04:02 | 4.65053 | 102.68094 | 38860 ft | 501 kts | 157° |
| 2026-05-07 04:03 | 4.58613 | 102.70656 | 38857 ft | 500 kts | 158° |
| 2026-05-07 04:03 | 4.52154 | 102.73215 | 38861 ft | 497 kts | 158° |
| 2026-05-07 04:04 | 4.45742 | 102.75766 | 38862 ft | 496 kts | 158° |
| 2026-05-07 04:04 | 4.39285 | 102.78353 | 38854 ft | 502 kts | 157° |
| 2026-05-07 04:05 | 4.32783 | 102.80941 | 38862 ft | 501 kts | 158° |
| 2026-05-07 04:05 | 4.26354 | 102.83493 | 38855 ft | 499 kts | 157° |
| 2026-05-07 04:06 | 4.19917 | 102.86076 | 38863 ft | 497 kts | 157° |
| 2026-05-07 04:06 | 4.13478 | 102.88647 | 38854 ft | 500 kts | 157° |
| 2026-05-07 04:07 | 4.07015 | 102.91209 | 38859 ft | 499 kts | 158° |
| 2026-05-07 04:07 | 4.00638 | 102.93737 | 38859 ft | 499 kts | 158° |
| 2026-05-07 04:08 | 3.94206 | 102.96302 | 38860 ft | 498 kts | 158° |
| 2026-05-07 04:08 | 3.87716 | 102.98876 | 38861 ft | 500 kts | 157° |
| 2026-05-07 04:09 | 3.81297 | 103.01435 | 38859 ft | 497 kts | 158° |
| 2026-05-07 04:09 | 3.74866 | 103.03982 | 38859 ft | 499 kts | 158° |
| 2026-05-07 04:10 | 3.68386 | 103.06551 | 38856 ft | 503 kts | 158° |
| 2026-05-07 04:10 | 3.61879 | 103.09144 | 38860 ft | 500 kts | 158° |
| 2026-05-07 04:11 | 3.55428 | 103.11713 | 38862 ft | 498 kts | 158° |
| 2026-05-07 04:11 | 3.48992 | 103.14271 | 38862 ft | 499 kts | 158° |
| 2026-05-07 04:12 | 3.42608 | 103.16815 | 38862 ft | 497 kts | 158° |
| 2026-05-07 04:12 | 3.36200 | 103.19348 | 38857 ft | 499 kts | 158° |
| 2026-05-07 04:13 | 3.29935 | 103.22276 | 38863 ft | 498 kts | 146° |
| 2026-05-07 04:13 | 3.24698 | 103.26782 | 38859 ft | 497 kts | 134° |
| 2026-05-07 04:14 | 3.19919 | 103.31776 | 38684 ft | 489 kts | 133° |
| 2026-05-07 04:14 | 3.17628 | 103.34257 | 37935 ft | 486 kts | 132° |
| 2026-05-07 04:14 | 3.15309 | 103.36757 | 37047 ft | 490 kts | 133° |
| 2026-05-07 04:14 | 3.12986 | 103.39244 | 36185 ft | 489 kts | 133° |
| 2026-05-07 04:15 | 3.10664 | 103.41721 | 35329 ft | 488 kts | 133° |
| 2026-05-07 04:15 | 3.08324 | 103.44206 | 34540 ft | 490 kts | 133° |
| 2026-05-07 04:15 | 3.05974 | 103.46688 | 33656 ft | 492 kts | 133° |
| 2026-05-07 04:15 | 3.03610 | 103.49182 | 32778 ft | 492 kts | 133° |
| 2026-05-07 04:16 | 3.01269 | 103.51655 | 32127 ft | 486 kts | 133° |
| 2026-05-07 04:16 | 2.98982 | 103.54079 | 31542 ft | 483 kts | 133° |
| 2026-05-07 04:16 | 2.96698 | 103.56510 | 30933 ft | 477 kts | 133° |
| 2026-05-07 04:16 | 2.94422 | 103.58921 | 30342 ft | 475 kts | 133° |
| 2026-05-07 04:17 | 2.92155 | 103.61321 | 29759 ft | 472 kts | 133° |
| 2026-05-07 04:17 | 2.89906 | 103.63708 | 29149 ft | 468 kts | 133° |
| 2026-05-07 04:17 | 2.87728 | 103.66091 | 28541 ft | 463 kts | 130° |
| 2026-05-07 04:17 | 2.85671 | 103.68573 | 27953 ft | 462 kts | 128° |
| 2026-05-07 04:18 | 2.83652 | 103.71039 | 27345 ft | 457 kts | 129° |
| 2026-05-07 04:18 | 2.81631 | 103.73485 | 26753 ft | 454 kts | 129° |
| 2026-05-07 04:18 | 2.79617 | 103.75902 | 26158 ft | 452 kts | 129° |
| 2026-05-07 04:18 | 2.77612 | 103.78305 | 25569 ft | 447 kts | 129° |
| 2026-05-07 04:19 | 2.75628 | 103.80679 | 24959 ft | 442 kts | 129° |
| 2026-05-07 04:19 | 2.73668 | 103.83024 | 24349 ft | 438 kts | 129° |
| 2026-05-07 04:19 | 2.71721 | 103.85353 | 23749 ft | 434 kts | 129° |
| 2026-05-07 04:19 | 2.69794 | 103.87652 | 23144 ft | 429 kts | 129° |
| 2026-05-07 04:20 | 2.67886 | 103.89919 | 22551 ft | 423 kts | 129° |
| 2026-05-07 04:20 | 2.66000 | 103.92166 | 21949 ft | 420 kts | 129° |
| 2026-05-07 04:20 | 2.64131 | 103.94388 | 21361 ft | 415 kts | 129° |
| 2026-05-07 04:21 | 2.60477 | 103.98757 | 20168 ft | 403 kts | 129° |
| 2026-05-07 04:21 | 2.58682 | 104.00903 | 19583 ft | 400 kts | 129° |
| 2026-05-07 04:21 | 2.56916 | 104.03005 | 19408 ft | 389 kts | 129° |
| 2026-05-07 04:21 | 2.55209 | 104.05027 | 19291 ft | 374 kts | 129° |
| 2026-05-07 04:22 | 2.53573 | 104.06979 | 19179 ft | 360 kts | 128° |
| 2026-05-07 04:22 | 2.51942 | 104.08811 | 19033 ft | 348 kts | 135° |
| 2026-05-07 04:22 | 2.49941 | 104.10112 | 18685 ft | 344 kts | 158° |
| 2026-05-07 04:22 | 2.47587 | 104.10545 | 18233 ft | 344 kts | 176° |
| 2026-05-07 04:23 | 2.45203 | 104.10573 | 17808 ft | 341 kts | 179° |
| 2026-05-07 04:23 | 2.42870 | 104.10553 | 17402 ft | 339 kts | 179° |
| 2026-05-07 04:23 | 2.40515 | 104.10531 | 16992 ft | 336 kts | 179° |
| 2026-05-07 04:23 | 2.38184 | 104.10513 | 16589 ft | 335 kts | 179° |
| 2026-05-07 04:24 | 2.35856 | 104.10507 | 16179 ft | 338 kts | 179° |
| 2026-05-07 04:24 | 2.33523 | 104.10501 | 15800 ft | 331 kts | 179° |
| 2026-05-07 04:24 | 2.31224 | 104.10506 | 15388 ft | 329 kts | 179° |
| 2026-05-07 04:24 | 2.28952 | 104.10508 | 14999 ft | 324 kts | 179° |
| 2026-05-07 04:25 | 2.26716 | 104.10509 | 14606 ft | 319 kts | 179° |
| 2026-05-07 04:25 | 2.24499 | 104.10503 | 14230 ft | 319 kts | 179° |
| 2026-05-07 04:25 | 2.22289 | 104.10501 | 13845 ft | 317 kts | 179° |
| 2026-05-07 04:25 | 2.20103 | 104.10505 | 13467 ft | 313 kts | 179° |
| 2026-05-07 04:26 | 2.17945 | 104.10508 | 13088 ft | 308 kts | 179° |
| 2026-05-07 04:26 | 2.15807 | 104.10505 | 12725 ft | 305 kts | 179° |
| 2026-05-07 04:26 | 2.13706 | 104.10504 | 12360 ft | 300 kts | 179° |
| 2026-05-07 04:26 | 2.11646 | 104.10499 | 12005 ft | 295 kts | 179° |
| 2026-05-07 04:27 | 2.09598 | 104.10496 | 11648 ft | 294 kts | 179° |
| 2026-05-07 04:27 | 2.07550 | 104.10497 | 11289 ft | 294 kts | 179° |
| 2026-05-07 04:27 | 2.05517 | 104.10498 | 10930 ft | 291 kts | 179° |
| 2026-05-07 04:27 | 2.03534 | 104.10498 | 10772 ft | 279 kts | 179° |
| 2026-05-07 04:28 | 2.01629 | 104.10492 | 10651 ft | 270 kts | 179° |
| 2026-05-07 04:28 | 1.99784 | 104.10492 | 10526 ft | 260 kts | 179° |
| 2026-05-07 04:28 | 1.97994 | 104.10494 | 10334 ft | 257 kts | 179° |
| 2026-05-07 04:28 | 1.96221 | 104.10507 | 10105 ft | 256 kts | 179° |
| 2026-05-07 04:29 | 1.94470 | 104.10503 | 9858 ft | 250 kts | 180° |
| 2026-05-07 04:29 | 1.92700 | 104.10454 | 9201 ft | 261 kts | 182° |
| 2026-05-07 04:29 | 1.90828 | 104.10369 | 8834 ft | 283 kts | 182° |
| 2026-05-07 04:29 | 1.88828 | 104.10288 | 8679 ft | 286 kts | 181° |
| 2026-05-07 04:30 | 1.86836 | 104.10208 | 8113 ft | 288 kts | 182° |
| 2026-05-07 04:30 | 1.84836 | 104.10118 | 7669 ft | 288 kts | 182° |
| 2026-05-07 04:30 | 1.82827 | 104.10031 | 7309 ft | 290 kts | 182° |
| 2026-05-07 04:30 | 1.80819 | 104.09952 | 6963 ft | 287 kts | 182° |
| 2026-05-07 04:31 | 1.78840 | 104.09870 | 6615 ft | 283 kts | 182° |
| 2026-05-07 04:31 | 1.76885 | 104.09786 | 6276 ft | 280 kts | 182° |
| 2026-05-07 04:31 | 1.74932 | 104.09709 | 5938 ft | 280 kts | 182° |
| 2026-05-07 04:31 | 1.72990 | 104.09631 | 5603 ft | 279 kts | 182° |
| 2026-05-07 04:32 | 1.71064 | 104.09556 | 5255 ft | 279 kts | 182° |
| 2026-05-07 04:32 | 1.69166 | 104.09479 | 4924 ft | 274 kts | 182° |
| 2026-05-07 04:32 | 1.67277 | 104.09404 | 4589 ft | 272 kts | 182° |
| 2026-05-07 04:32 | 1.65453 | 104.09335 | 4311 ft | 272 kts | 182° |
| 2026-05-07 04:33 | 1.63598 | 104.09269 | 3977 ft | 271 kts | 181° |
| 2026-05-07 04:33 | 1.61722 | 104.09040 | 3621 ft | 270 kts | 195° |
| 2026-05-07 04:33 | 1.60017 | 104.08402 | 3513 ft | 253 kts | 202° |
| 2026-05-07 04:33 | 1.58486 | 104.07743 | 3504 ft | 237 kts | 202° |
| 2026-05-07 04:34 | 1.57047 | 104.07122 | 3506 ft | 218 kts | 202° |
| 2026-05-07 04:34 | 1.55705 | 104.06550 | 3547 ft | 199 kts | 202° |
| 2026-05-07 04:34 | 1.54474 | 104.06033 | 3559 ft | 185 kts | 202° |
| 2026-05-07 04:34 | 1.53286 | 104.05537 | 3461 ft | 193 kts | 202° |
| 2026-05-07 04:35 | 1.52084 | 104.05029 | 3155 ft | 185 kts | 202° |
| 2026-05-07 04:35 | 1.50937 | 104.04536 | 2884 ft | 172 kts | 202° |
| 2026-05-07 04:35 | 1.49897 | 104.04095 | 2663 ft | 161 kts | 202° |
| 2026-05-07 04:35 | 1.48854 | 104.03656 | 2433 ft | 168 kts | 202° |
| 2026-05-07 04:36 | 1.47753 | 104.03191 | 2202 ft | 171 kts | 202° |
| 2026-05-07 04:36 | 1.46694 | 104.02743 | 1982 ft | 167 kts | 201° |
| 2026-05-07 04:36 | 1.45633 | 104.02294 | 1772 ft | 168 kts | 202° |
| 2026-05-07 04:36 | 1.44559 | 104.01838 | 1527 ft | 169 kts | 202° |
| 2026-05-07 04:37 | 1.43479 | 104.01379 | 1307 ft | 164 kts | 202° |
| 2026-05-07 04:37 | 1.42493 | 104.00961 | 1097 ft | 152 kts | 202° |
| 2026-05-07 04:37 | 1.41558 | 104.00565 | 913 ft | 141 kts | 202° |
| 2026-05-07 04:37 | 1.40715 | 104.00207 | 733 ft | 131 kts | 202° |
| 2026-05-07 04:38 | 1.39911 | 103.99863 | 563 ft | 130 kts | 203° |
| 2026-05-07 04:38 | 1.39080 | 103.99508 | 375 ft | 130 kts | 202° |
| 2026-05-07 04:38 | 1.38242 | 103.99150 | 204 ft | 131 kts | 202° |
| 2026-05-07 04:38 | 1.37413 | 103.98805 | 60 ft | 131 kts | 201° |
| 2026-05-07 04:39 | 1.36632 | 103.98474 | 36 ft | 115 kts | 202° |
| 2026-05-07 04:39 | 1.36154 | 103.98273 | 33 ft | 38 kts | 203° |
| 2026-05-07 04:39 | 1.35980 | 103.98199 | 32 ft | 26 kts | 203° |
| 2026-05-07 04:39 | 1.35806 | 103.98130 | 34 ft | 28 kts | 197° |
| 2026-05-07 04:40 | 1.35627 | 103.98111 | 36 ft | 20 kts | 175° |
| 2026-05-07 04:40 | 1.35525 | 103.98160 | 34 ft | 15 kts | 113° |
| 2026-05-07 04:40 | 1.35584 | 103.98232 | 32 ft | 16 kts | 28° |
| 2026-05-07 04:40 | 1.35693 | 103.98281 | 32 ft | 14 kts | 31° |
| 2026-05-07 04:41 | 1.35700 | 103.98325 | 32 ft | 8 kts | 92° |
| 2026-05-07 04:41 | 1.35691 | 103.98391 | 32 ft | 8 kts | 72° |
| 2026-05-07 04:41 | 1.35696 | 103.98458 | 31 ft | 11 kts | 112° |
| 2026-05-07 04:41 | 1.35673 | 103.98507 | 31 ft | 6 kts | 130° |
| 2026-05-07 04:42 | 1.35640 | 103.98508 | 31 ft | 6 kts | 183° |
| 2026-05-07 04:42 | 1.35627 | 103.98507 | 31 ft | 0 kts | 191° |
| 2026-05-07 04:42 | 1.35616 | 103.98505 | 31 ft | 2 kts | 188° |
| 2026-05-07 04:42 | 1.35610 | 103.98504 | 31 ft | 2 kts | 189° |
| 2026-05-07 04:43 | 1.35608 | 103.98504 | 31 ft | 0 kts | 189° |